Hanze Genua — PCZB — position and weather

sailwx.info

Track history (hours):
 
Tides and Currents Weather Stations Pressure Air Temp Water Temp Dewpoint Dewpoint Depression Visibility Wind Speed Wind Dir Waves Ship Positions

Hanze Genua

Last reported at 2018-Jun-09 11:17 UTC. Time now 2018-Jun-24 05:26 UTC.
Position N 49°07' W 005°14'.
Warning: this ship's position is 14 days out of date.

Length 180 m; draft 10.4 m.

Type: Cargo ship. MMSI: 244830401.

Date/timePositionNaut miles runAvg speedWind from/ knotsBaromVisibWave heightAir tempDewpointWater temp
2018-Jun-09 11:17N 49°07' W 005°14'411.6
2018-Jun-09 10:56N 49°09' W 005°09'6312.0
2018-Jun-09 05:41N 49°42' W 003°46'311.9
2018-Jun-09 05:27N 49°43' W 003°42'511.6
2018-Jun-09 05:00N 49°45' W 003°35'611.6
2018-Jun-09 04:30N 49°48' W 003°27'611.2
2018-Jun-09 04:00N 49°51' W 003°19'611.0
2018-Jun-09 03:30N 49°54' W 003°12'511.0
2018-Jun-09 03:00N 49°56' W 003°05'511.0
2018-Jun-09 02:30N 49°59' W 002°57'611.0
2018-Jun-09 01:58N 50°01' W 002°48'511.1
2018-Jun-09 01:30N 50°02' W 002°41'611.3
2018-Jun-09 01:00N 50°04' W 002°32'1511.9
2018-Jun-08 23:47N 50°08' W 002°10'412.7
2018-Jun-08 23:30N 50°09' W 002°05'613.0
2018-Jun-08 23:00N 50°11' W 001°56'713.5
2018-Jun-08 22:30N 50°13' W 001°45'713.7
2018-Jun-08 22:00N 50°15' W 001°35'713.9
2018-Jun-08 21:31N 50°16' W 001°24'714.0
2018-Jun-08 21:00N 50°17' W 001°14'714.0
2018-Jun-08 20:30N 50°19' W 001°03'713.8
2018-Jun-08 20:00N 50°21' W 000°53'713.0
2018-Jun-08 19:28N 50°23' W 000°42'612.5
2018-Jun-08 19:00N 50°24' W 000°33'712.1
2018-Jun-08 18:25N 50°26' W 000°23'511.7
2018-Jun-08 18:00N 50°28' W 000°15'611.4
2018-Jun-08 17:30N 50°29' W 000°07'511.1
2018-Jun-08 17:01N 50°31' E 000°02'610.9
2018-Jun-08 16:29N 50°32' E 000°10'510.8
2018-Jun-08 16:00N 50°33' E 000°18'511.0
2018-Jun-08 15:31N 50°35' E 000°27'611.2
2018-Jun-08 15:01N 50°37' E 000°35'611.7
2018-Jun-08 14:30N 50°40' E 000°42'612.3
2018-Jun-08 14:01N 50°44' E 000°50'613.0
2018-Jun-08 13:31N 50°48' E 000°58'713.4
2018-Jun-08 13:00N 50°52' E 001°07'713.6
2018-Jun-08 12:28N 50°57' E 001°15'613.7
2018-Jun-08 12:00N 51°02' E 001°22'612.6
2018-Jun-08 11:31N 51°06' E 001°30'612.3
2018-Jun-08 11:01N 51°09' E 001°38'611.9
2018-Jun-08 10:30N 51°13' E 001°45'611.5
2018-Jun-08 10:00N 51°18' E 001°49'611.2
2018-Jun-08 09:30N 51°23' E 001°53'510.7
2018-Jun-08 09:00N 51°28' E 001°57'611.1
2018-Jun-08 08:30N 51°32' E 002°03'611.1
2018-Jun-08 07:59N 51°36' E 002°09'510.9
2018-Jun-08 07:30N 51°40' E 002°15'511.1
2018-Jun-08 07:00N 51°44' E 002°21'611.4
2018-Jun-08 06:30N 51°49' E 002°27'611.7
2018-Jun-08 06:00N 51°53' E 002°33'612.0
2018-Jun-08 05:30N 51°58' E 002°40'612.5
2018-Jun-08 05:00N 52°02' E 002°46'612.7
2018-Jun-08 04:30N 52°07' E 002°53'712.9
2018-Jun-08 03:59N 52°12' E 003°00'613.0
2018-Jun-08 03:30N 52°17' E 003°07'713.0
2018-Jun-08 03:00N 52°22' E 003°13'612.9
2018-Jun-08 02:30N 52°27' E 003°20'612.6
2018-Jun-08 02:00N 52°33' E 003°25'612.2
2018-Jun-08 01:30N 52°38' E 003°31'611.9
2018-Jun-08 01:00N 52°42' E 003°37'611.6
2018-Jun-08 00:30N 52°47' E 003°43'611.3
2018-Jun-08 00:01N 52°51' E 003°49'611.1
2018-Jun-07 23:30N 52°55' E 003°55'511.0
2018-Jun-07 23:01N 52°59' E 004°01'510.9
2018-Jun-07 22:31N 53°03' E 004°08'610.9
2018-Jun-07 22:00N 53°07' E 004°15'611.2
2018-Jun-07 21:30N 53°10' E 004°22'611.2
2018-Jun-07 21:01N 53°15' E 004°26'611.7
2018-Jun-07 20:30N 53°21' E 004°30'612.2
2018-Jun-07 20:00N 53°26' E 004°33'612.4
2018-Jun-07 19:31N 53°32' E 004°36'612.5
2018-Jun-07 19:01N 53°38' E 004°40'612.2
2018-Jun-07 18:30N 53°44' E 004°44'612.3
2018-Jun-07 18:00N 53°49' E 004°48'612.3
2018-Jun-07 17:31N 53°55' E 004°51'611.8
2018-Jun-07 17:01N 54°01' E 004°52'510.6
2018-Jun-07 16:30N 54°05' E 004°58'611.9
2018-Jun-07 16:00N 54°11' E 005°02'15511.5
2018-Jun-07 02:33N 56°26' E 007°13'111.4
2018-Jun-07 02:29N 56°27' E 007°14'9510.8
2018-Jun-06 17:42N 57°38' E 009°10'211.1
2018-Jun-06 17:30N 57°39' E 009°14'611.5
2018-Jun-06 17:01N 57°41' E 009°23'611.1
2018-Jun-06 16:31N 57°42' E 009°34'611.5
2018-Jun-06 16:00N 57°43' E 009°44'611.5
2018-Jun-06 15:31N 57°45' E 009°55'611.5
2018-Jun-06 15:00N 57°46' E 010°05'611.7
2018-Jun-06 14:30N 57°47' E 010°16'611.5
2018-Jun-06 14:00N 57°48' E 010°27'711.6
2018-Jun-06 13:22N 57°48' E 010°41'410.1
2018-Jun-06 13:00N 57°47' E 010°47'510.4
2018-Jun-06 12:31N 57°42' E 010°51'1 1.4
2018-Jun-06 11:51N 57°41' E 010°51'1 2.5
2018-Jun-06 11:30N 57°40' E 010°52'6 9.4
2018-Jun-06 10:49N 57°38' E 011°04'411.8
2018-Jun-06 10:30N 57°37' E 011°09'611.3
2018-Jun-06 09:58N 57°32' E 011°18'511.4
2018-Jun-06 09:30N 57°29' E 011°25'611.4
2018-Jun-06 09:00N 57°24' E 011°29'611.8
2018-Jun-06 08:30N 57°18' E 011°32'6310.9
2018-Jun-06 02:43N 56°15' E 011°21'411.1
2018-Jun-06 02:23N 56°12' E 011°18'2710.4
2018-Jun-05 23:49N 55°50' E 010°50'410.9
2018-Jun-05 23:28N 55°46' E 010°49'510.7
2018-Jun-05 23:00N 55°42' E 010°48'910.6
2018-Jun-05 22:09N 55°33' E 010°51'210.8
2018-Jun-05 22:00N 55°31' E 010°52'611.6
2018-Jun-05 21:30N 55°26' E 010°58'611.1
2018-Jun-05 21:00N 55°21' E 011°02'510.4
2018-Jun-05 20:30N 55°16' E 011°04'5 9.3
2018-Jun-05 20:00N 55°12' E 011°05'510.0
2018-Jun-05 19:30N 55°08' E 010°60'510.1
2018-Jun-05 19:00N 55°03' E 010°60'5 9.8
2018-Jun-05 18:30N 54°58' E 010°57'510.0
2018-Jun-05 18:00N 54°54' E 010°52'5 9.9
2018-Jun-05 17:30N 54°49' E 010°50'510.9
2018-Jun-05 17:00N 54°44' E 010°47'510.3
2018-Jun-05 16:30N 54°39' E 010°51'611.9
2018-Jun-05 16:00N 54°36' E 010°60'2 4.4
2018-Jun-05 15:31N 54°36' E 011°03'510.4
2018-Jun-05 15:00N 54°35' E 011°12'611.6
2018-Jun-05 14:30N 54°33' E 011°21'611.1
2018-Jun-05 14:00N 54°31' E 011°30'510.0
2018-Jun-05 13:30N 54°29' E 011°38'510.4
2018-Jun-05 13:00N 54°26' E 011°46'610.9
2018-Jun-05 12:25N 54°26' E 011°57'511.0
2018-Jun-05 12:00N 54°26' E 012°05'5 9.4
2018-Jun-05 11:30N 54°28' E 012°12'611.3
2018-Jun-05 10:58N 54°34' E 012°15'510.0
2018-Jun-05 10:30N 54°38' E 012°20'510.6
2018-Jun-05 10:00N 54°41' E 012°27'611.0
2018-Jun-05 09:28N 54°44' E 012°36'511.0
2018-Jun-05 08:59N 54°47' E 012°44'511.1
2018-Jun-05 08:30N 54°49' E 012°52'711.1
2018-Jun-05 07:54N 54°52' E 013°02'411.2
2018-Jun-05 07:30N 54°53' E 013°10'611.2
2018-Jun-05 07:00N 54°55' E 013°19'611.0
2018-Jun-05 06:30N 54°57' E 013°28'911.0
2018-Jun-05 05:43N 54°60' E 013°42'311.1
2018-Jun-05 05:29N 55°01' E 013°46'611.3
2018-Jun-05 04:57N 55°03' E 013°56'510.7
2018-Jun-05 04:27N 55°05' E 014°04'511.2
2018-Jun-05 03:58N 55°10' E 014°10'511.4
2018-Jun-05 03:30N 55°13' E 014°17'611.5
2018-Jun-05 03:00N 55°18' E 014°23'611.3
2018-Jun-05 02:30N 55°22' E 014°30'611.1
2018-Jun-05 01:57N 55°27' E 014°37'511.1
2018-Jun-05 01:30N 55°29' E 014°45'510.9
2018-Jun-05 01:00N 55°32' E 014°53'510.7
2018-Jun-05 00:30N 55°34' E 015°02'710.7
2018-Jun-04 23:53N 55°37' E 015°12'410.8
2018-Jun-04 23:30N 55°39' E 015°18'510.8
2018-Jun-04 23:00N 55°40' E 015°28'611.0
2018-Jun-04 22:26N 55°41' E 015°39'611.0
2018-Jun-04 21:51N 55°43' E 015°50'26510.8
2018-Jun-03 21:18N 58°58' E 021°22'412.0
2018-Jun-03 20:59N 59°01' E 021°26'612.3
2018-Jun-03 20:30N 59°06' E 021°32'612.0
2018-Jun-03 20:00N 59°10' E 021°40'612.2
2018-Jun-03 19:30N 59°14' E 021°50'612.1
2018-Jun-03 19:00N 59°18' E 021°59'712.0
2018-Jun-03 18:27N 59°22' E 022°09'511.8
2018-Jun-03 18:00N 59°25' E 022°17'611.7
2018-Jun-03 17:30N 59°29' E 022°26'611.4
2018-Jun-03 17:00N 59°32' E 022°36'611.6
2018-Jun-03 16:30N 59°33' E 022°47'611.6
2018-Jun-03 16:00N 59°35' E 022°58'611.6
2018-Jun-03 15:30N 59°36' E 023°09'611.4
2018-Jun-03 15:00N 59°38' E 023°20'510.9
2018-Jun-03 14:30N 59°39' E 023°30'510.6
2018-Jun-03 14:00N 59°41' E 023°41'510.4
2018-Jun-03 13:30N 59°42' E 023°50'510.6
2018-Jun-03 13:00N 59°44' E 024°01'510.8
2018-Jun-03 12:30N 59°45' E 024°11'611.0
2018-Jun-03 12:00N 59°47' E 024°22'510.8
2018-Jun-03 11:30N 59°48' E 024°32'510.9
2018-Jun-03 11:00N 59°49' E 024°42'510.8
2018-Jun-03 10:30N 59°50' E 024°53'511.0
2018-Jun-03 10:00N 59°51' E 025°04'511.0
2018-Jun-03 09:30N 59°52' E 025°14'611.2
2018-Jun-03 09:00N 59°53' E 025°25'611.4
2018-Jun-03 08:30N 59°54' E 025°37'611.5
2018-Jun-03 07:58N 59°55' E 025°49'1312.9
2018-Jun-03 06:57N 59°59' E 026°14'611.6
2018-Jun-03 06:24N 60°01' E 026°26'3 7.8
2018-Jun-03 06:00N 60°02' E 026°32'711.9
2018-Jun-03 05:25N 60°01' E 026°46'613.6
2018-Jun-03 05:00N 59°60' E 026°57'510.6
2018-Jun-03 04:30N 60°01' E 027°08'612.8
2018-Jun-03 04:01N 60°04' E 027°18'612.5
2018-Jun-03 03:30N 60°07' E 027°29'612.6
2018-Jun-03 03:00N 60°10' E 027°40'611.1
2018-Jun-03 02:30N 60°11' E 027°51'612.2
2018-Jun-03 02:00N 60°10' E 028°03'612.1
2018-Jun-03 01:30N 60°08' E 028°15'612.1
2018-Jun-03 01:00N 60°05' E 028°25'611.8
2018-Jun-03 00:30N 60°03' E 028°36'611.7
2018-Jun-02 23:59N 60°03' E 028°48'611.7
2018-Jun-02 23:29N 60°02' E 028°60'23 9.9
2018-Jun-02 21:09N 59°59' E 029°45'1 7.1
2018-Jun-02 21:00N 59°58' E 029°47'5 9.4
2018-Jun-02 20:29N 59°56' E 029°56'510.1
2018-Jun-02 20:00N 59°54' E 030°05'3 6.4
2018-Jun-02 19:28N 59°53' E 030°11'0 0.4
2018-Jun-02 18:53N 59°53' E 030°11'0 0.0
2018-Jun-02 18:26N 59°53' E 030°11'0 0.0
2018-Jun-02 17:59N 59°53' E 030°11'0 0.0
2018-Jun-02 17:23N 59°53' E 030°11'0 0.0
2018-Jun-02 16:59N 59°53' E 030°11'0 0.0
2018-Jun-02 16:29N 59°53' E 030°11'0 0.0
2018-Jun-02 15:59N 59°53' E 030°11'0 0.0
2018-Jun-02 15:29N 59°53' E 030°11'0 0.0
2018-Jun-02 14:59N 59°53' E 030°11'0 0.0
2018-Jun-02 14:20N 59°53' E 030°11'0 0.0
2018-Jun-02 13:56N 59°53' E 030°11'0 0.0
2018-Jun-02 13:29N 59°53' E 030°11'0 0.0
2018-Jun-02 12:56N 59°53' E 030°11'0 0.0
2018-Jun-02 12:29N 59°53' E 030°11'0 0.0
2018-Jun-02 11:59N 59°53' E 030°11'0 0.0
2018-Jun-02 11:29N 59°53' E 030°11'0 0.0
2018-Jun-02 10:59N 59°53' E 030°11'0 0.0
2018-Jun-02 10:26N 59°53' E 030°11'0 0.0
2018-Jun-02 09:59N 59°53' E 030°11'0 0.0
2018-Jun-02 09:29N 59°53' E 030°11'0 0.0
2018-Jun-02 08:53N 59°53' E 030°11'0 0.0
2018-Jun-02 08:29N 59°53' E 030°11'0 0.0
2018-Jun-02 07:59N 59°53' E 030°11'0 0.0
2018-Jun-02 07:29N 59°53' E 030°11'0 0.0
2018-Jun-02 06:59N 59°53' E 030°11'0 0.0
2018-Jun-02 06:29N 59°53' E 030°11'0 0.0
2018-Jun-02 05:59N 59°53' E 030°11'0 0.0
2018-Jun-02 05:29N 59°53' E 030°11'0 0.0
2018-Jun-02 04:59N 59°53' E 030°11'0 0.0
2018-Jun-02 04:28N 59°53' E 030°11'0 0.0
2018-Jun-02 03:58N 59°53' E 030°11'0 0.0
2018-Jun-02 03:26N 59°53' E 030°11'0 0.0
2018-Jun-02 02:59N 59°53' E 030°11'0 0.0
2018-Jun-02 02:28N 59°53' E 030°11'0 0.0
2018-Jun-02 01:59N 59°53' E 030°11'0 0.0
2018-Jun-02 01:28N 59°53' E 030°11'0 0.0
2018-Jun-02 00:59N 59°53' E 030°11'0 0.0
2018-Jun-02 00:29N 59°53' E 030°11'0 0.0
2018-Jun-01 23:59N 59°53' E 030°11'0 0.0
2018-Jun-01 23:29N 59°53' E 030°11'0 0.0
2018-Jun-01 22:59N 59°53' E 030°11'0 0.0
2018-Jun-01 22:28N 59°53' E 030°11'0 0.0
2018-Jun-01 21:59N 59°53' E 030°11'0 0.0
2018-Jun-01 21:29N 59°53' E 030°11'0 0.0
2018-Jun-01 20:58N 59°53' E 030°11'0 0.0
2018-Jun-01 20:28N 59°53' E 030°11'0 0.0
2018-Jun-01 19:59N 59°53' E 030°11'0 0.0
2018-Jun-01 19:28N 59°53' E 030°11'0 0.0
2018-Jun-01 18:58N 59°53' E 030°11'0 0.0
2018-Jun-01 18:29N 59°53' E 030°11'0 0.0
2018-Jun-01 17:59N 59°53' E 030°11'0 0.0
2018-Jun-01 17:29N 59°53' E 030°11'0 0.0
2018-Jun-01 16:59N 59°53' E 030°11'0 0.0
2018-Jun-01 16:29N 59°53' E 030°11'0 0.0
2018-Jun-01 15:58N 59°53' E 030°11'0 0.0
2018-Jun-01 15:23N 59°53' E 030°11'0 0.0
2018-Jun-01 14:59N 59°53' E 030°11'0 0.1
2018-Jun-01 14:30N 59°53' E 030°11'2 3.2
2018-Jun-01 14:00N 59°54' E 030°09'4 8.6
2018-Jun-01 13:30N 59°55' E 030°00'510.8
2018-Jun-01 13:00N 59°57' E 029°51'510.4
2018-Jun-01 12:30N 59°60' E 029°41'612.0
2018-Jun-01 12:00N 60°01' E 029°30'4 7.0
2018-Jun-01 11:29N 60°02' E 029°22'2 4.0
2018-Jun-01 11:00N 60°01' E 029°19'1 1.2
2018-Jun-01 10:30N 60°01' E 029°19'2 4.6
2018-Jun-01 10:00N 60°02' E 029°15'4 8.1
2018-Jun-01 09:30N 60°02' E 029°07'3 5.7
2018-Jun-01 09:00N 60°02' E 029°01'5 9.5
2018-Jun-01 08:28N 60°02' E 028°51'511.3
2018-Jun-01 08:00N 60°02' E 028°41'714.0
2018-Jun-01 07:31N 60°03' E 028°27'713.7
2018-Jun-01 06:59N 60°07' E 028°15'714.2
2018-Jun-01 06:30N 60°09' E 028°02'714.8
2018-Jun-01 06:00N 60°11' E 027°47'714.7
2018-Jun-01 05:30N 60°07' E 027°34'714.9
2018-Jun-01 05:00N 60°03' E 027°22'714.8
2018-Jun-01 04:30N 59°59' E 027°09'713.7
2018-Jun-01 04:00N 59°58' E 026°55'714.6
2018-Jun-01 03:30N 59°60' E 026°41'714.7
2018-Jun-01 03:00N 59°58' E 026°27'714.7
2018-Jun-01 02:30N 59°56' E 026°13'714.6
2018-Jun-01 02:00N 59°54' E 025°59'714.7
2018-Jun-01 01:30N 59°52' E 025°45'714.6
2018-Jun-01 01:00N 59°50' E 025°30'714.4
2018-Jun-01 00:31N 59°49' E 025°16'714.2
2018-Jun-01 00:00N 59°47' E 025°03'714.1
2018-May-31 23:30N 59°46' E 024°49'714.1
2018-May-31 23:01N 59°45' E 024°35'714.0
2018-May-31 22:31N 59°43' E 024°21'714.1
2018-May-31 22:00N 59°41' E 024°08'714.1
2018-May-31 21:31N 59°38' E 023°55'713.8
2018-May-31 21:01N 59°36' E 023°42'714.2
2018-May-31 20:30N 59°34' E 023°29'714.3
2018-May-31 20:00N 59°32' E 023°15'2614.2
2018-May-31 18:09N 59°22' E 022°28'214.2
2018-May-31 18:00N 59°21' E 022°24'714.2
2018-May-31 17:30N 59°16' E 022°14'714.4
2018-May-31 17:00N 59°12' E 022°03'714.3
2018-May-31 16:30N 59°07' E 021°52'714.1
2018-May-31 16:01N 59°02' E 021°42'714.0
2018-May-31 15:30N 58°56' E 021°35'713.9
2018-May-31 15:00N 58°50' E 021°27'713.7
2018-May-31 14:30N 58°44' E 021°21'713.6
2018-May-31 14:00N 58°38' E 021°15'1914.1
2018-May-31 12:40N 58°21' E 021°03'310.7
2018-May-31 12:26N 58°18' E 021°01'12913.8
2018-May-31 03:07N 56°13' E 020°08'213.6
2018-May-31 03:00N 56°11' E 020°07'713.5
2018-May-31 02:28N 56°04' E 020°04'613.6
2018-May-31 02:00N 55°58' E 020°02'713.7
2018-May-31 01:30N 55°51' E 019°59'713.7
2018-May-31 01:00N 55°45' E 019°56'713.8
2018-May-31 00:31N 55°38' E 019°53'713.6
2018-May-31 00:00N 55°31' E 019°50'713.5
2018-May-30 23:30N 55°25' E 019°48'713.7
2018-May-30 23:00N 55°18' E 019°45'713.8
2018-May-30 22:30N 55°11' E 019°42'713.9
2018-May-30 22:00N 55°05' E 019°40'713.9
2018-May-30 21:30N 54°58' E 019°38'714.0
2018-May-30 21:00N 54°51' E 019°38'713.6
2018-May-30 20:30N 54°44' E 019°41'713.4
2018-May-30 20:00N 54°40' E 019°50'4 7.5
2018-May-30 19:30N 54°38' E 019°55'4 7.2
2018-May-30 18:59N 54°38' E 020°02'4 7.5
2018-May-30 18:30N 54°40' E 020°08'3 1.4
2018-May-30 16:17N 54°41' E 020°12'0 0.0
2018-May-30 11:44N 54°41' E 020°12'  
Track history (hours):
 
Tides and Currents Weather Stations Pressure Air Temp Water Temp Dewpoint Dewpoint Depression Visibility Wind Speed Wind Dir Waves Ship Positions

Hanze Genua

Last reported at 2018-Jun-09 11:17 UTC. Time now 2018-Jun-24 05:26 UTC.
Position N 49°07' W 005°14'.
Warning: this ship's position is 14 days out of date.

Length 180 m; draft 10.4 m.

Type: Cargo ship. MMSI: 244830401.

Date/timePositionNaut miles runAvg speedWind from/ knotsBaromVisibWave heightAir tempDewpointWater temp
2018-Jun-09 11:17N 49°07' W 005°14'411.6
2018-Jun-09 10:56N 49°09' W 005°09'6312.0
2018-Jun-09 05:41N 49°42' W 003°46'311.9
2018-Jun-09 05:27N 49°43' W 003°42'511.6
2018-Jun-09 05:00N 49°45' W 003°35'611.6
2018-Jun-09 04:30N 49°48' W 003°27'611.2
2018-Jun-09 04:00N 49°51' W 003°19'611.0
2018-Jun-09 03:30N 49°54' W 003°12'511.0
2018-Jun-09 03:00N 49°56' W 003°05'511.0
2018-Jun-09 02:30N 49°59' W 002°57'611.0
2018-Jun-09 01:58N 50°01' W 002°48'511.1
2018-Jun-09 01:30N 50°02' W 002°41'611.3
2018-Jun-09 01:00N 50°04' W 002°32'1511.9
2018-Jun-08 23:47N 50°08' W 002°10'412.7
2018-Jun-08 23:30N 50°09' W 002°05'613.0
2018-Jun-08 23:00N 50°11' W 001°56'713.5
2018-Jun-08 22:30N 50°13' W 001°45'713.7
2018-Jun-08 22:00N 50°15' W 001°35'713.9
2018-Jun-08 21:31N 50°16' W 001°24'714.0
2018-Jun-08 21:00N 50°17' W 001°14'714.0
2018-Jun-08 20:30N 50°19' W 001°03'713.8
2018-Jun-08 20:00N 50°21' W 000°53'713.0
2018-Jun-08 19:28N 50°23' W 000°42'612.5
2018-Jun-08 19:00N 50°24' W 000°33'712.1
2018-Jun-08 18:25N 50°26' W 000°23'511.7
2018-Jun-08 18:00N 50°28' W 000°15'611.4
2018-Jun-08 17:30N 50°29' W 000°07'511.1
2018-Jun-08 17:01N 50°31' E 000°02'610.9
2018-Jun-08 16:29N 50°32' E 000°10'510.8
2018-Jun-08 16:00N 50°33' E 000°18'511.0
2018-Jun-08 15:31N 50°35' E 000°27'611.2
2018-Jun-08 15:01N 50°37' E 000°35'611.7
2018-Jun-08 14:30N 50°40' E 000°42'612.3
2018-Jun-08 14:01N 50°44' E 000°50'613.0
2018-Jun-08 13:31N 50°48' E 000°58'713.4
2018-Jun-08 13:00N 50°52' E 001°07'713.6
2018-Jun-08 12:28N 50°57' E 001°15'613.7
2018-Jun-08 12:00N 51°02' E 001°22'612.6
2018-Jun-08 11:31N 51°06' E 001°30'612.3
2018-Jun-08 11:01N 51°09' E 001°38'611.9
2018-Jun-08 10:30N 51°13' E 001°45'611.5
2018-Jun-08 10:00N 51°18' E 001°49'611.2
2018-Jun-08 09:30N 51°23' E 001°53'510.7
2018-Jun-08 09:00N 51°28' E 001°57'611.1
2018-Jun-08 08:30N 51°32' E 002°03'611.1
2018-Jun-08 07:59N 51°36' E 002°09'510.9
2018-Jun-08 07:30N 51°40' E 002°15'511.1
2018-Jun-08 07:00N 51°44' E 002°21'611.4
2018-Jun-08 06:30N 51°49' E 002°27'611.7
2018-Jun-08 06:00N 51°53' E 002°33'612.0
2018-Jun-08 05:30N 51°58' E 002°40'612.5
2018-Jun-08 05:00N 52°02' E 002°46'612.7
2018-Jun-08 04:30N 52°07' E 002°53'712.9
2018-Jun-08 03:59N 52°12' E 003°00'613.0
2018-Jun-08 03:30N 52°17' E 003°07'713.0
2018-Jun-08 03:00N 52°22' E 003°13'612.9
2018-Jun-08 02:30N 52°27' E 003°20'612.6
2018-Jun-08 02:00N 52°33' E 003°25'612.2
2018-Jun-08 01:30N 52°38' E 003°31'611.9
2018-Jun-08 01:00N 52°42' E 003°37'611.6
2018-Jun-08 00:30N 52°47' E 003°43'611.3
2018-Jun-08 00:01N 52°51' E 003°49'611.1
2018-Jun-07 23:30N 52°55' E 003°55'511.0
2018-Jun-07 23:01N 52°59' E 004°01'510.9
2018-Jun-07 22:31N 53°03' E 004°08'610.9
2018-Jun-07 22:00N 53°07' E 004°15'611.2
2018-Jun-07 21:30N 53°10' E 004°22'611.2
2018-Jun-07 21:01N 53°15' E 004°26'611.7
2018-Jun-07 20:30N 53°21' E 004°30'612.2
2018-Jun-07 20:00N 53°26' E 004°33'612.4
2018-Jun-07 19:31N 53°32' E 004°36'612.5
2018-Jun-07 19:01N 53°38' E 004°40'612.2
2018-Jun-07 18:30N 53°44' E 004°44'612.3
2018-Jun-07 18:00N 53°49' E 004°48'612.3
2018-Jun-07 17:31N 53°55' E 004°51'611.8
2018-Jun-07 17:01N 54°01' E 004°52'510.6
2018-Jun-07 16:30N 54°05' E 004°58'611.9
2018-Jun-07 16:00N 54°11' E 005°02'15511.5
2018-Jun-07 02:33N 56°26' E 007°13'111.4
2018-Jun-07 02:29N 56°27' E 007°14'9510.8
2018-Jun-06 17:42N 57°38' E 009°10'211.1
2018-Jun-06 17:30N 57°39' E 009°14'611.5
2018-Jun-06 17:01N 57°41' E 009°23'611.1
2018-Jun-06 16:31N 57°42' E 009°34'611.5
2018-Jun-06 16:00N 57°43' E 009°44'611.5
2018-Jun-06 15:31N 57°45' E 009°55'611.5
2018-Jun-06 15:00N 57°46' E 010°05'611.7
2018-Jun-06 14:30N 57°47' E 010°16'611.5
2018-Jun-06 14:00N 57°48' E 010°27'711.6
2018-Jun-06 13:22N 57°48' E 010°41'410.1
2018-Jun-06 13:00N 57°47' E 010°47'510.4
2018-Jun-06 12:31N 57°42' E 010°51'1 1.4
2018-Jun-06 11:51N 57°41' E 010°51'1 2.5
2018-Jun-06 11:30N 57°40' E 010°52'6 9.4
2018-Jun-06 10:49N 57°38' E 011°04'411.8
2018-Jun-06 10:30N 57°37' E 011°09'611.3
2018-Jun-06 09:58N 57°32' E 011°18'511.4
2018-Jun-06 09:30N 57°29' E 011°25'611.4
2018-Jun-06 09:00N 57°24' E 011°29'611.8
2018-Jun-06 08:30N 57°18' E 011°32'6310.9
2018-Jun-06 02:43N 56°15' E 011°21'411.1
2018-Jun-06 02:23N 56°12' E 011°18'2710.4
2018-Jun-05 23:49N 55°50' E 010°50'410.9
2018-Jun-05 23:28N 55°46' E 010°49'510.7
2018-Jun-05 23:00N 55°42' E 010°48'910.6
2018-Jun-05 22:09N 55°33' E 010°51'210.8
2018-Jun-05 22:00N 55°31' E 010°52'611.6
2018-Jun-05 21:30N 55°26' E 010°58'611.1
2018-Jun-05 21:00N 55°21' E 011°02'510.4
2018-Jun-05 20:30N 55°16' E 011°04'5 9.3
2018-Jun-05 20:00N 55°12' E 011°05'510.0
2018-Jun-05 19:30N 55°08' E 010°60'510.1
2018-Jun-05 19:00N 55°03' E 010°60'5 9.8
2018-Jun-05 18:30N 54°58' E 010°57'510.0
2018-Jun-05 18:00N 54°54' E 010°52'5 9.9
2018-Jun-05 17:30N 54°49' E 010°50'510.9
2018-Jun-05 17:00N 54°44' E 010°47'510.3
2018-Jun-05 16:30N 54°39' E 010°51'611.9
2018-Jun-05 16:00N 54°36' E 010°60'2 4.4
2018-Jun-05 15:31N 54°36' E 011°03'510.4
2018-Jun-05 15:00N 54°35' E 011°12'611.6
2018-Jun-05 14:30N 54°33' E 011°21'611.1
2018-Jun-05 14:00N 54°31' E 011°30'510.0
2018-Jun-05 13:30N 54°29' E 011°38'510.4
2018-Jun-05 13:00N 54°26' E 011°46'610.9
2018-Jun-05 12:25N 54°26' E 011°57'511.0
2018-Jun-05 12:00N 54°26' E 012°05'5 9.4
2018-Jun-05 11:30N 54°28' E 012°12'611.3
2018-Jun-05 10:58N 54°34' E 012°15'510.0
2018-Jun-05 10:30N 54°38' E 012°20'510.6
2018-Jun-05 10:00N 54°41' E 012°27'611.0
2018-Jun-05 09:28N 54°44' E 012°36'511.0
2018-Jun-05 08:59N 54°47' E 012°44'511.1
2018-Jun-05 08:30N 54°49' E 012°52'711.1
2018-Jun-05 07:54N 54°52' E 013°02'411.2
2018-Jun-05 07:30N 54°53' E 013°10'611.2
2018-Jun-05 07:00N 54°55' E 013°19'611.0
2018-Jun-05 06:30N 54°57' E 013°28'911.0
2018-Jun-05 05:43N 54°60' E 013°42'311.1
2018-Jun-05 05:29N 55°01' E 013°46'611.3
2018-Jun-05 04:57N 55°03' E 013°56'510.7
2018-Jun-05 04:27N 55°05' E 014°04'511.2
2018-Jun-05 03:58N 55°10' E 014°10'511.4
2018-Jun-05 03:30N 55°13' E 014°17'611.5
2018-Jun-05 03:00N 55°18' E 014°23'611.3
2018-Jun-05 02:30N 55°22' E 014°30'611.1
2018-Jun-05 01:57N 55°27' E 014°37'511.1
2018-Jun-05 01:30N 55°29' E 014°45'510.9
2018-Jun-05 01:00N 55°32' E 014°53'510.7
2018-Jun-05 00:30N 55°34' E 015°02'710.7
2018-Jun-04 23:53N 55°37' E 015°12'410.8
2018-Jun-04 23:30N 55°39' E 015°18'510.8
2018-Jun-04 23:00N 55°40' E 015°28'611.0
2018-Jun-04 22:26N 55°41' E 015°39'611.0
2018-Jun-04 21:51N 55°43' E 015°50'26510.8
2018-Jun-03 21:18N 58°58' E 021°22'412.0
2018-Jun-03 20:59N 59°01' E 021°26'612.3
2018-Jun-03 20:30N 59°06' E 021°32'612.0
2018-Jun-03 20:00N 59°10' E 021°40'612.2
2018-Jun-03 19:30N 59°14' E 021°50'612.1
2018-Jun-03 19:00N 59°18' E 021°59'712.0
2018-Jun-03 18:27N 59°22' E 022°09'511.8
2018-Jun-03 18:00N 59°25' E 022°17'611.7
2018-Jun-03 17:30N 59°29' E 022°26'611.4
2018-Jun-03 17:00N 59°32' E 022°36'611.6
2018-Jun-03 16:30N 59°33' E 022°47'611.6
2018-Jun-03 16:00N 59°35' E 022°58'611.6
2018-Jun-03 15:30N 59°36' E 023°09'611.4
2018-Jun-03 15:00N 59°38' E 023°20'510.9
2018-Jun-03 14:30N 59°39' E 023°30'510.6
2018-Jun-03 14:00N 59°41' E 023°41'510.4
2018-Jun-03 13:30N 59°42' E 023°50'510.6
2018-Jun-03 13:00N 59°44' E 024°01'510.8
2018-Jun-03 12:30N 59°45' E 024°11'611.0
2018-Jun-03 12:00N 59°47' E 024°22'510.8
2018-Jun-03 11:30N 59°48' E 024°32'510.9
2018-Jun-03 11:00N 59°49' E 024°42'510.8
2018-Jun-03 10:30N 59°50' E 024°53'511.0
2018-Jun-03 10:00N 59°51' E 025°04'511.0
2018-Jun-03 09:30N 59°52' E 025°14'611.2
2018-Jun-03 09:00N 59°53' E 025°25'611.4
2018-Jun-03 08:30N 59°54' E 025°37'611.5
2018-Jun-03 07:58N 59°55' E 025°49'1312.9
2018-Jun-03 06:57N 59°59' E 026°14'611.6
2018-Jun-03 06:24N 60°01' E 026°26'3 7.8
2018-Jun-03 06:00N 60°02' E 026°32'711.9
2018-Jun-03 05:25N 60°01' E 026°46'613.6
2018-Jun-03 05:00N 59°60' E 026°57'510.6
2018-Jun-03 04:30N 60°01' E 027°08'612.8
2018-Jun-03 04:01N 60°04' E 027°18'612.5
2018-Jun-03 03:30N 60°07' E 027°29'612.6
2018-Jun-03 03:00N 60°10' E 027°40'611.1
2018-Jun-03 02:30N 60°11' E 027°51'612.2
2018-Jun-03 02:00N 60°10' E 028°03'612.1
2018-Jun-03 01:30N 60°08' E 028°15'612.1
2018-Jun-03 01:00N 60°05' E 028°25'611.8
2018-Jun-03 00:30N 60°03' E 028°36'611.7
2018-Jun-02 23:59N 60°03' E 028°48'611.7
2018-Jun-02 23:29N 60°02' E 028°60'23 9.9
2018-Jun-02 21:09N 59°59' E 029°45'1 7.1
2018-Jun-02 21:00N 59°58' E 029°47'5 9.4
2018-Jun-02 20:29N 59°56' E 029°56'510.1
2018-Jun-02 20:00N 59°54' E 030°05'3 6.4
2018-Jun-02 19:28N 59°53' E 030°11'0 0.4
2018-Jun-02 18:53N 59°53' E 030°11'0 0.0
2018-Jun-02 18:26N 59°53' E 030°11'0 0.0
2018-Jun-02 17:59N 59°53' E 030°11'0 0.0
2018-Jun-02 17:23N 59°53' E 030°11'0 0.0
2018-Jun-02 16:59N 59°53' E 030°11'0 0.0
2018-Jun-02 16:29N 59°53' E 030°11'0 0.0
2018-Jun-02 15:59N 59°53' E 030°11'0 0.0
2018-Jun-02 15:29N 59°53' E 030°11'0 0.0
2018-Jun-02 14:59N 59°53' E 030°11'0 0.0
2018-Jun-02 14:20N 59°53' E 030°11'0 0.0
2018-Jun-02 13:56N 59°53' E 030°11'0 0.0
2018-Jun-02 13:29N 59°53' E 030°11'0 0.0
2018-Jun-02 12:56N 59°53' E 030°11'0 0.0
2018-Jun-02 12:29N 59°53' E 030°11'0 0.0
2018-Jun-02 11:59N 59°53' E 030°11'0 0.0
2018-Jun-02 11:29N 59°53' E 030°11'0 0.0
2018-Jun-02 10:59N 59°53' E 030°11'0 0.0
2018-Jun-02 10:26N 59°53' E 030°11'0 0.0
2018-Jun-02 09:59N 59°53' E 030°11'0 0.0
2018-Jun-02 09:29N 59°53' E 030°11'0 0.0
2018-Jun-02 08:53N 59°53' E 030°11'0 0.0
2018-Jun-02 08:29N 59°53' E 030°11'0 0.0
2018-Jun-02 07:59N 59°53' E 030°11'0 0.0
2018-Jun-02 07:29N 59°53' E 030°11'0 0.0
2018-Jun-02 06:59N 59°53' E 030°11'0 0.0
2018-Jun-02 06:29N 59°53' E 030°11'0 0.0
2018-Jun-02 05:59N 59°53' E 030°11'0 0.0
2018-Jun-02 05:29N 59°53' E 030°11'0 0.0
2018-Jun-02 04:59N 59°53' E 030°11'0 0.0
2018-Jun-02 04:28N 59°53' E 030°11'0 0.0
2018-Jun-02 03:58N 59°53' E 030°11'0 0.0
2018-Jun-02 03:26N 59°53' E 030°11'0 0.0
2018-Jun-02 02:59N 59°53' E 030°11'0 0.0
2018-Jun-02 02:28N 59°53' E 030°11'0 0.0
2018-Jun-02 01:59N 59°53' E 030°11'0 0.0
2018-Jun-02 01:28N 59°53' E 030°11'0 0.0
2018-Jun-02 00:59N 59°53' E 030°11'0 0.0
2018-Jun-02 00:29N 59°53' E 030°11'0 0.0
2018-Jun-01 23:59N 59°53' E 030°11'0 0.0
2018-Jun-01 23:29N 59°53' E 030°11'0 0.0
2018-Jun-01 22:59N 59°53' E 030°11'0 0.0
2018-Jun-01 22:28N 59°53' E 030°11'0 0.0
2018-Jun-01 21:59N 59°53' E 030°11'0 0.0
2018-Jun-01 21:29N 59°53' E 030°11'0 0.0
2018-Jun-01 20:58N 59°53' E 030°11'0 0.0
2018-Jun-01 20:28N 59°53' E 030°11'0 0.0
2018-Jun-01 19:59N 59°53' E 030°11'0 0.0
2018-Jun-01 19:28N 59°53' E 030°11'0 0.0
2018-Jun-01 18:58N 59°53' E 030°11'0 0.0
2018-Jun-01 18:29N 59°53' E 030°11'0 0.0
2018-Jun-01 17:59N 59°53' E 030°11'0 0.0
2018-Jun-01 17:29N 59°53' E 030°11'0 0.0
2018-Jun-01 16:59N 59°53' E 030°11'0 0.0
2018-Jun-01 16:29N 59°53' E 030°11'0 0.0
2018-Jun-01 15:58N 59°53' E 030°11'0 0.0
2018-Jun-01 15:23N 59°53' E 030°11'0 0.0
2018-Jun-01 14:59N 59°53' E 030°11'0 0.1
2018-Jun-01 14:30N 59°53' E 030°11'2 3.2
2018-Jun-01 14:00N 59°54' E 030°09'4 8.6
2018-Jun-01 13:30N 59°55' E 030°00'510.8
2018-Jun-01 13:00N 59°57' E 029°51'510.4
2018-Jun-01 12:30N 59°60' E 029°41'612.0
2018-Jun-01 12:00N 60°01' E 029°30'4 7.0
2018-Jun-01 11:29N 60°02' E 029°22'2 4.0
2018-Jun-01 11:00N 60°01' E 029°19'1 1.2
2018-Jun-01 10:30N 60°01' E 029°19'2 4.6
2018-Jun-01 10:00N 60°02' E 029°15'4 8.1
2018-Jun-01 09:30N 60°02' E 029°07'3 5.7
2018-Jun-01 09:00N 60°02' E 029°01'5 9.5
2018-Jun-01 08:28N 60°02' E 028°51'511.3
2018-Jun-01 08:00N 60°02' E 028°41'714.0
2018-Jun-01 07:31N 60°03' E 028°27'713.7
2018-Jun-01 06:59N 60°07' E 028°15'714.2
2018-Jun-01 06:30N 60°09' E 028°02'714.8
2018-Jun-01 06:00N 60°11' E 027°47'714.7
2018-Jun-01 05:30N 60°07' E 027°34'714.9
2018-Jun-01 05:00N 60°03' E 027°22'714.8
2018-Jun-01 04:30N 59°59' E 027°09'713.7
2018-Jun-01 04:00N 59°58' E 026°55'714.6
2018-Jun-01 03:30N 59°60' E 026°41'714.7
2018-Jun-01 03:00N 59°58' E 026°27'714.7
2018-Jun-01 02:30N 59°56' E 026°13'714.6
2018-Jun-01 02:00N 59°54' E 025°59'714.7
2018-Jun-01 01:30N 59°52' E 025°45'714.6
2018-Jun-01 01:00N 59°50' E 025°30'714.4
2018-Jun-01 00:31N 59°49' E 025°16'714.2
2018-Jun-01 00:00N 59°47' E 025°03'714.1
2018-May-31 23:30N 59°46' E 024°49'714.1
2018-May-31 23:01N 59°45' E 024°35'714.0
2018-May-31 22:31N 59°43' E 024°21'714.1
2018-May-31 22:00N 59°41' E 024°08'714.1
2018-May-31 21:31N 59°38' E 023°55'713.8
2018-May-31 21:01N 59°36' E 023°42'714.2
2018-May-31 20:30N 59°34' E 023°29'714.3
2018-May-31 20:00N 59°32' E 023°15'2614.2
2018-May-31 18:09N 59°22' E 022°28'214.2
2018-May-31 18:00N 59°21' E 022°24'714.2
2018-May-31 17:30N 59°16' E 022°14'714.4
2018-May-31 17:00N 59°12' E 022°03'714.3
2018-May-31 16:30N 59°07' E 021°52'714.1
2018-May-31 16:01N 59°02' E 021°42'714.0
2018-May-31 15:30N 58°56' E 021°35'713.9
2018-May-31 15:00N 58°50' E 021°27'713.7
2018-May-31 14:30N 58°44' E 021°21'713.6
2018-May-31 14:00N 58°38' E 021°15'1914.1
2018-May-31 12:40N 58°21' E 021°03'310.7
2018-May-31 12:26N 58°18' E 021°01'12913.8
2018-May-31 03:07N 56°13' E 020°08'213.6
2018-May-31 03:00N 56°11' E 020°07'713.5
2018-May-31 02:28N 56°04' E 020°04'613.6
2018-May-31 02:00N 55°58' E 020°02'713.7
2018-May-31 01:30N 55°51' E 019°59'713.7
2018-May-31 01:00N 55°45' E 019°56'713.8
2018-May-31 00:31N 55°38' E 019°53'713.6
2018-May-31 00:00N 55°31' E 019°50'713.5
2018-May-30 23:30N 55°25' E 019°48'713.7
2018-May-30 23:00N 55°18' E 019°45'713.8
2018-May-30 22:30N 55°11' E 019°42'713.9
2018-May-30 22:00N 55°05' E 019°40'713.9
2018-May-30 21:30N 54°58' E 019°38'714.0
2018-May-30 21:00N 54°51' E 019°38'713.6
2018-May-30 20:30N 54°44' E 019°41'713.4
2018-May-30 20:00N 54°40' E 019°50'4 7.5
2018-May-30 19:30N 54°38' E 019°55'4 7.2
2018-May-30 18:59N 54°38' E 020°02'4 7.5
2018-May-30 18:30N 54°40' E 020°08'3 1.4
2018-May-30 16:17N 54°41' E 020°12'0 0.0
2018-May-30 11:44N 54°41' E 020°12'  

Dump ship's entire track history